Time;durP1;ratioP1;P1;durP2;ratioP2;P2;SDS_P1;SDS_P2;PMS_P1;PMS_P2;Temp;Humidity;BMP_temperature;BMP_pressure;BME280_temperature;BME280_humidity;BME280_pressure;Samples;Min_cycle;Max_cycle;Signal;HPM_P1;HPM_P2
2021/03/20 00:02:15;;;;;;;;;;;15.10;52.00;;;;;;4918347;29;19913;-64
2021/03/20 00:04:41;;;;;;;;;;;15.00;52.10;;;;;;4918137;29;20334;-64
2021/03/20 00:07:06;;;;;;;;;;;15.00;52.10;;;;;;4918505;29;19950;-65
2021/03/20 00:09:32;;;;;;;;;;;15.00;52.20;;;;;;4918091;29;19929;-65
2021/03/20 00:11:58;;;;;;;;;;;14.90;52.10;;;;;;4901204;29;19947;-65
2021/03/20 00:14:24;;;;;;;;;;;15.00;52.20;;;;;;4918107;29;19907;-65
2021/03/20 00:16:49;;;;;;;;;;;15.00;52.30;;;;;;4918319;29;19907;-64
2021/03/20 00:19:15;;;;;;;;;;;15.50;52.60;;;;;;4918313;29;19943;-65
2021/03/20 00:21:41;;;;;;;;;;;15.00;52.40;;;;;;4918123;29;19954;-65
2021/03/20 00:24:06;;;;;;;;;;;14.90;52.40;;;;;;4918003;29;20337;-65
2021/03/20 00:26:32;;;;;;;;;;;14.90;52.50;;;;;;4917710;29;20275;-65
2021/03/20 00:28:58;;;;;;;;;;;14.90;52.50;;;;;;4917785;29;20001;-64
2021/03/20 00:31:24;;;;;;;;;;;14.70;52.50;;;;;;4918044;29;19918;-65
2021/03/20 00:33:49;;;;;;;;;;;14.80;53.20;;;;;;4917781;29;19907;-64
2021/03/20 00:36:15;;;;;;;;;;;14.70;52.50;;;;;;4918018;29;19914;-64
2021/03/20 00:38:41;;;;;;;;;;;14.80;52.70;;;;;;4917843;29;20381;-63
2021/03/20 00:41:07;;;;;;;;;;;14.90;52.80;;;;;;4917685;29;20358;-64
2021/03/20 00:43:32;;;;;;;;;;;14.80;52.70;;;;;;4917972;29;19911;-63
2021/03/20 00:45:58;;;;;;;;;;;14.80;52.80;;;;;;4917467;29;19919;-64
2021/03/20 00:48:25;;;;;;;;;;;14.60;52.70;;;;;;4917628;29;20013;-64
2021/03/20 00:50:51;;;;;;;;;;;14.80;52.80;;;;;;4900596;29;19997;-64
2021/03/20 00:53:16;;;;;;;;;;;14.40;52.60;;;;;;4917577;29;20074;-64
2021/03/20 00:55:42;;;;;;;;;;;14.80;52.90;;;;;;4917397;29;19911;-64
2021/03/20 00:58:16;;;;;;;;;;;14.80;52.90;;;;;;4917349;29;19907;-64
2021/03/20 01:00:42;;;;;;;;;;;14.70;52.80;;;;;;4917418;29;19958;-65
2021/03/20 01:03:07;;;;;;;;;;;14.70;52.90;;;;;;4916923;29;19982;-65
2021/03/20 01:05:33;;;;;;;;;;;14.60;52.80;;;;;;4899654;29;19926;-64
2021/03/20 01:07:58;;;;;;;;;;;14.70;53.00;;;;;;4917464;29;20001;-64
2021/03/20 01:10:24;;;;;;;;;;;14.70;53.00;;;;;;4917511;29;20306;-65
2021/03/20 01:12:49;;;;;;;;;;;14.50;52.90;;;;;;4900032;29;19907;-64
2021/03/20 01:15:16;;;;;;;;;;;14.90;53.20;;;;;;4899992;29;19914;-65
2021/03/20 01:17:42;;;;;;;;;;;14.70;53.10;;;;;;4917525;29;20282;-65
2021/03/20 01:20:08;;;;;;;;;;;15.00;53.20;;;;;;4916976;29;19917;-64
2021/03/20 01:22:33;;;;;;;;;;;14.60;53.00;;;;;;4916806;29;19911;-65
2021/03/20 01:24:59;;;;;;;;;;;14.40;53.00;;;;;;4916674;29;20016;-65
2021/03/20 01:27:24;;;;;;;;;;;14.50;53.10;;;;;;4916965;29;19907;-65
2021/03/20 01:29:50;;;;;;;;;;;14.60;53.30;;;;;;4917197;29;20401;-65
2021/03/20 01:32:16;;;;;;;;;;;14.60;53.30;;;;;;4916623;29;19910;-65
2021/03/20 01:34:41;;;;;;;;;;;14.50;53.20;;;;;;4916661;29;20009;-65
2021/03/20 01:37:07;;;;;;;;;;;14.50;53.30;;;;;;4916815;29;19906;-64
2021/03/20 01:39:32;;;;;;;;;;;14.60;53.30;;;;;;4916580;29;19911;-64
2021/03/20 01:41:58;;;;;;;;;;;14.50;53.30;;;;;;4916584;29;19907;-64
2021/03/20 01:44:24;;;;;;;;;;;14.50;53.30;;;;;;4916390;29;19918;-65
2021/03/20 01:46:50;;;;;;;;;;;14.50;53.30;;;;;;4916620;29;19917;-65
2021/03/20 01:49:36;;;;;;;;;;;14.50;53.40;;;;;;4916636;29;19911;-65
2021/03/20 01:52:05;;;;;;;;;;;14.50;53.30;;;;;;4916382;29;20362;-65
2021/03/20 01:54:41;;;;;;;;;;;14.50;53.40;;;;;;4916283;29;20274;-65
2021/03/20 01:57:07;;;;;;;;;;;14.50;53.40;;;;;;4916360;29;19915;-64
2021/03/20 01:59:33;;;;;;;;;;;14.40;53.50;;;;;;4916360;29;19911;-64
2021/03/20 02:01:58;;;;;;;;;;;14.50;53.50;;;;;;4916340;29;19907;-64
2021/03/20 02:04:24;;;;;;;;;;;14.30;53.50;;;;;;4916445;29;20274;-64
2021/03/20 02:06:50;;;;;;;;;;;14.50;53.60;;;;;;4916157;29;19907;-64
2021/03/20 02:09:15;;;;;;;;;;;14.50;53.60;;;;;;4916273;29;20002;-65
2021/03/20 02:12:05;;;;;;;;;;;14.40;53.60;;;;;;4916145;29;19914;-64
2021/03/20 02:14:37;;;;;;;;;;;14.40;53.50;;;;;;4916219;29;20323;-65
2021/03/20 02:17:02;;;;;;;;;;;14.40;53.50;;;;;;4916176;29;19939;-64
2021/03/20 02:19:43;;;;;;;;;;;14.30;54.20;;;;;;4916471;29;20037;-66
2021/03/20 02:22:18;;;;;;;;;;;14.40;53.50;;;;;;4916414;29;19911;-64
2021/03/20 02:25:02;;;;;;;;;;;14.30;53.50;;;;;;4916357;29;19989;-65
2021/03/20 02:27:37;;;;;;;;;;;14.30;53.50;;;;;;4916088;29;19911;-64
2021/03/20 02:30:21;;;;;;;;;;;14.30;53.50;;;;;;4916037;29;19914;-65
2021/03/20 02:33:05;;;;;;;;;;;14.30;53.50;;;;;;4915933;29;19998;-64
2021/03/20 02:35:34;;;;;;;;;;;14.30;53.60;;;;;;4915986;29;19950;-64
2021/03/20 02:38:13;;;;;;;;;;;14.30;53.70;;;;;;4916027;29;20413;-64
2021/03/20 02:40:44;;;;;;;;;;;14.30;53.60;;;;;;4916075;29;19907;-64
2021/03/20 02:43:19;;;;;;;;;;;14.30;53.60;;;;;;4915994;29;19907;-64
2021/03/20 02:45:50;;;;;;;;;;;14.30;53.70;;;;;;4915782;29;20415;-64
2021/03/20 02:48:24;;;;;;;;;;;14.30;53.80;;;;;;4922435;29;19958;-65
2021/03/20 02:50:59;;;;;;;;;;;14.30;53.70;;;;;;4916075;29;19947;-64
2021/03/20 02:53:27;;;;;;;;;;;14.20;53.70;;;;;;4916060;29;20282;-64
2021/03/20 02:55:55;;;;;;;;;;;14.30;53.80;;;;;;4915974;29;20011;-64
2021/03/20 02:58:24;;;;;;;;;;;14.20;53.70;;;;;;4915985;29;19907;-65
2021/03/20 03:00:57;;;;;;;;;;;14.10;53.70;;;;;;4916141;29;19911;-64
2021/03/20 03:03:24;;;;;;;;;;;14.20;53.70;;;;;;4916351;29;19969;-64
2021/03/20 03:05:51;;;;;;;;;;;14.20;53.80;;;;;;4916006;29;19919;-64
2021/03/20 03:08:25;;;;;;;;;;;14.20;53.80;;;;;;4915814;29;20432;-64
2021/03/20 03:10:54;;;;;;;;;;;14.20;53.70;;;;;;4915901;29;19915;-64
2021/03/20 03:13:22;;;;;;;;;;;14.00;53.70;;;;;;4915831;29;19918;-64
2021/03/20 03:15:53;;;;;;;;;;;14.00;53.70;;;;;;4915977;29;20002;-64
2021/03/20 03:18:24;;;;;;;;;;;14.10;53.80;;;;;;4920590;29;19919;-65
2021/03/20 03:20:52;;;;;;;;;;;14.10;53.70;;;;;;4915678;29;19911;-65
2021/03/20 03:23:19;;;;;;;;;;;14.00;53.80;;;;;;4915614;29;19922;-65
2021/03/20 03:25:47;;;;;;;;;;;14.10;53.80;;;;;;4915480;29;20389;-65
2021/03/20 03:28:16;;;;;;;;;;;14.10;53.90;;;;;;4917860;29;19911;-65
2021/03/20 03:30:41;;;;;;;;;;;14.90;54.30;;;;;;4919234;29;19913;-66
2021/03/20 03:33:09;;;;;;;;;;;14.10;53.90;;;;;;4919270;29;19907;-64
2021/03/20 03:35:41;;;;;;;;;;;13.90;53.80;;;;;;4919113;29;20384;-64
2021/03/20 03:38:15;;;;;;;;;;;14.60;54.20;;;;;;4918928;29;19906;-64
2021/03/20 03:40:43;;;;;;;;;;;14.00;53.80;;;;;;4919082;29;19907;-65
2021/03/20 03:43:08;;;;;;;;;;;14.00;53.90;;;;;;4918849;29;20344;-65
2021/03/20 03:45:34;;;;;;;;;;;14.00;53.90;;;;;;4918619;29;19998;-65
2021/03/20 03:47:59;;;;;;;;;;;13.90;53.90;;;;;;4918723;29;19918;-65
2021/03/20 03:50:27;;;;;;;;;;;13.90;53.90;;;;;;4918717;29;20421;-65
2021/03/20 03:52:53;;;;;;;;;;;14.00;54.00;;;;;;4918537;29;19965;-64
2021/03/20 03:55:19;;;;;;;;;;;14.00;54.00;;;;;;4918531;29;19997;-65
2021/03/20 03:58:03;;;;;;;;;;;14.00;54.00;;;;;;4918504;29;20228;-65
2021/03/20 04:00:28;;;;;;;;;;;13.90;53.90;;;;;;4918521;29;19908;-65
2021/03/20 04:03:14;;;;;;;;;;;13.90;54.00;;;;;;4918414;29;19911;-65
2021/03/20 04:06:06;;;;;;;;;;;14.00;53.60;;;;;;4891053;29;19919;-64
2021/03/20 04:08:31;;;;;;;;;;;13.90;54.00;;;;;;4888833;29;19949;-64
2021/03/20 04:11:11;;;;;;;;;;;14.30;54.20;;;;;;4918081;29;19962;-65
2021/03/20 04:13:41;;;;;;;;;;;13.90;54.00;;;;;;4918174;29;19907;-65
2021/03/20 04:16:14;;;;;;;;;;;13.90;54.00;;;;;;4918180;29;20017;-64
2021/03/20 04:18:40;;;;;;;;;;;13.90;54.00;;;;;;4918502;29;19929;-65
2021/03/20 04:21:09;;;;;;;;;;;13.80;54.00;;;;;;4917960;29;20475;-65
2021/03/20 04:23:37;;;;;;;;;;;13.80;54.00;;;;;;4917954;29;19946;-65
2021/03/20 04:26:27;;;;;;;;;;;13.90;54.10;;;;;;4918118;29;19974;-65
2021/03/20 04:28:58;;;;;;;;;;;13.80;54.00;;;;;;4918135;29;20002;-65
2021/03/20 04:31:27;;;;;;;;;;;13.80;54.10;;;;;;4917871;29;19907;-65
2021/03/20 04:34:21;;;;;;;;;;;13.80;54.10;;;;;;4918037;29;19906;-65
2021/03/20 04:36:55;;;;;;;;;;;13.80;54.00;;;;;;4900860;29;19907;-64
2021/03/20 04:39:22;;;;;;;;;;;13.80;54.10;;;;;;4900391;29;20306;-64
2021/03/20 04:41:48;;;;;;;;;;;13.80;54.20;;;;;;4917643;29;19907;-65
2021/03/20 04:44:14;;;;;;;;;;;14.30;54.40;;;;;;4917629;29;19922;-64
2021/03/20 04:46:40;;;;;;;;;;;13.60;54.10;;;;;;4917159;29;19919;-65
2021/03/20 04:49:24;;;;;;;;;;;13.70;54.10;;;;;;4917740;29;19951;-65
2021/03/20 04:51:54;;;;;;;;;;;13.80;54.10;;;;;;4923732;29;19918;-64
2021/03/20 04:54:20;;;;;;;;;;;13.80;54.20;;;;;;4917413;29;19907;-65
2021/03/20 04:57:05;;;;;;;;;;;13.80;54.20;;;;;;4900275;29;20381;-65
2021/03/20 04:59:41;;;;;;;;;;;13.80;54.10;;;;;;4917364;29;19957;-64
2021/03/20 05:02:25;;;;;;;;;;;13.70;54.00;;;;;;4917604;29;19998;-64
2021/03/20 05:04:52;;;;;;;;;;;13.70;54.00;;;;;;4917199;29;20330;-65
2021/03/20 05:07:25;;;;;;;;;;;13.50;54.00;;;;;;4917423;29;19929;-64
2021/03/20 05:10:01;;;;;;;;;;;13.70;54.20;;;;;;4917213;29;19911;-65
2021/03/20 05:12:28;;;;;;;;;;;13.70;54.00;;;;;;4917104;29;19978;-64
2021/03/20 05:14:57;;;;;;;;;;;13.70;54.10;;;;;;4917376;29;19906;-65
2021/03/20 05:17:23;;;;;;;;;;;13.70;54.10;;;;;;4917093;29;19914;-65
2021/03/20 05:19:55;;;;;;;;;;;13.70;54.20;;;;;;4917328;29;19974;-65
2021/03/20 05:22:21;;;;;;;;;;;13.70;54.10;;;;;;4916985;29;19915;-65
2021/03/20 05:24:47;;;;;;;;;;;13.60;54.10;;;;;;4916848;29;19958;-64
2021/03/20 05:27:16;;;;;;;;;;;13.50;54.10;;;;;;4916982;29;19931;-64
2021/03/20 05:29:42;;;;;;;;;;;13.60;54.10;;;;;;4917095;29;20318;-65
2021/03/20 05:32:08;;;;;;;;;;;13.40;54.10;;;;;;4916786;29;19907;-64
2021/03/20 05:34:36;;;;;;;;;;;13.60;54.20;;;;;;4916751;29;20012;-64
2021/03/20 05:37:02;;;;;;;;;;;13.60;54.20;;;;;;4899783;29;19975;-65
2021/03/20 05:39:27;;;;;;;;;;;14.20;54.50;;;;;;4916691;29;19914;-64
2021/03/20 05:42:19;;;;;;;;;;;13.50;54.20;;;;;;4916637;29;19993;-63
2021/03/20 05:44:56;;;;;;;;;;;13.60;54.10;;;;;;4913305;29;19915;-64
2021/03/20 05:47:38;;;;;;;;;;;13.60;54.20;;;;;;4916438;29;19906;-65
2021/03/20 05:50:10;;;;;;;;;;;13.60;54.20;;;;;;4915910;29;19907;-65
2021/03/20 05:52:46;;;;;;;;;;;13.60;54.20;;;;;;4916680;29;19911;-64
2021/03/20 05:55:23;;;;;;;;;;;13.50;54.10;;;;;;4916338;29;19907;-64
2021/03/20 05:58:08;;;;;;;;;;;13.50;54.10;;;;;;4899347;29;20414;-65
2021/03/20 06:00:36;;;;;;;;;;;13.50;54.10;;;;;;4916266;29;19911;-64
2021/03/20 06:03:20;;;;;;;;;;;13.50;54.10;;;;;;4916189;29;19911;-64
2021/03/20 06:05:57;;;;;;;;;;;13.50;54.30;;;;;;4916348;29;20635;-65
2021/03/20 06:08:35;;;;;;;;;;;13.50;54.60;;;;;;4916168;29;19911;-65
2021/03/20 06:11:03;;;;;;;;;;;13.60;54.60;;;;;;4916198;29;19915;-65
2021/03/20 06:13:32;;;;;;;;;;;13.70;54.50;;;;;;4916391;29;19914;-63
2021/03/20 06:16:05;;;;;;;;;;;13.70;54.40;;;;;;4916067;29;19907;-63
2021/03/20 06:18:40;;;;;;;;;;;13.80;54.40;;;;;;4916595;29;20014;-65
2021/03/20 06:21:13;;;;;;;;;;;13.90;54.10;;;;;;4916148;29;19919;-64
2021/03/20 06:23:49;;;;;;;;;;;14.20;54.10;;;;;;4916233;29;19906;-65
2021/03/20 06:26:18;;;;;;;;;;;14.00;53.90;;;;;;4916048;29;19915;-65
2021/03/20 06:28:47;;;;;;;;;;;14.00;53.80;;;;;;4916032;29;20046;-64
2021/03/20 06:31:21;;;;;;;;;;;14.00;53.80;;;;;;4916036;29;20294;-65
2021/03/20 06:33:56;;;;;;;;;;;14.10;53.60;;;;;;4916033;29;19925;-64
2021/03/20 06:36:24;;;;;;;;;;;14.20;53.70;;;;;;4915963;29;19978;-65
2021/03/20 06:38:58;;;;;;;;;;;14.20;53.70;;;;;;4916274;29;19955;-64
2021/03/20 06:41:30;;;;;;;;;;;14.30;53.60;;;;;;4915994;29;19907;-65
2021/03/20 06:43:59;;;;;;;;;;;14.30;53.50;;;;;;4915950;29;20346;-64
2021/03/20 06:46:33;;;;;;;;;;;14.30;53.40;;;;;;4915832;29;19969;-64
2021/03/20 06:48:59;;;;;;;;;;;14.40;53.30;;;;;;4916134;29;19911;-64
2021/03/20 06:51:25;;;;;;;;;;;14.50;53.40;;;;;;4916161;29;19907;-64
2021/03/20 06:53:58;;;;;;;;;;;14.50;53.30;;;;;;4916089;29;19907;-64
2021/03/20 06:56:24;;;;;;;;;;;14.50;53.10;;;;;;4916013;29;19978;-65
2021/03/20 06:58:50;;;;;;;;;;;14.30;53.00;;;;;;4915931;29;19908;-64
2021/03/20 07:01:35;;;;;;;;;;;14.60;53.10;;;;;;4917085;29;19958;-64
2021/03/20 07:04:09;;;;;;;;;;;14.60;53.10;;;;;;4919406;29;20009;-65
2021/03/20 07:06:52;;;;;;;;;;;14.70;53.00;;;;;;4919299;29;19937;-64
2021/03/20 07:09:17;;;;;;;;;;;14.70;52.90;;;;;;4919616;29;19907;-64
2021/03/20 07:11:44;;;;;;;;;;;14.70;53.00;;;;;;4902314;29;19938;-65
2021/03/20 07:14:32;;;;;;;;;;;14.70;53.10;;;;;;4902113;29;19946;-64
2021/03/20 07:17:00;;;;;;;;;;;14.70;53.10;;;;;;4919088;29;20005;-64
2021/03/20 07:19:25;;;;;;;;;;;14.60;53.00;;;;;;4919503;29;20335;-65
2021/03/20 07:21:57;;;;;;;;;;;14.80;53.00;;;;;;4919105;29;19911;-64
2021/03/20 07:24:39;;;;;;;;;;;14.70;52.90;;;;;;4919035;29;19907;-65
2021/03/20 07:27:14;;;;;;;;;;;14.70;53.00;;;;;;4919287;29;20001;-63
2021/03/20 07:29:43;;;;;;;;;;;14.80;53.30;;;;;;4918944;29;20334;-64
2021/03/20 07:32:11;;;;;;;;;;;15.70;53.80;;;;;;4901897;29;19914;-64
2021/03/20 07:34:37;;;;;;;;;;;14.70;53.20;;;;;;4918906;29;19911;-64
2021/03/20 07:37:05;;;;;;;;;;;14.70;53.30;;;;;;4918893;29;19917;-63
2021/03/20 07:39:41;;;;;;;;;;;14.80;53.30;;;;;;4919035;29;19913;-63
2021/03/20 07:42:21;;;;;;;;;;;14.70;53.10;;;;;;4919020;29;19911;-64
2021/03/20 07:44:47;;;;;;;;;;;14.70;53.20;;;;;;4918824;29;19911;-64
2021/03/20 07:47:16;;;;;;;;;;;14.50;53.10;;;;;;4918687;29;19915;-66
2021/03/20 07:49:42;;;;;;;;;;;14.70;53.00;;;;;;4918776;29;19918;-65
2021/03/20 07:52:22;;;;;;;;;;;14.70;53.10;;;;;;4918498;29;20273;-63
2021/03/20 07:54:47;;;;;;;;;;;14.70;53.00;;;;;;4901394;29;19907;-65
2021/03/20 07:57:14;;;;;;;;;;;14.60;53.60;;;;;;4918414;29;19907;-65
2021/03/20 07:59:47;;;;;;;;;;;14.60;54.20;;;;;;4918617;29;19930;-65
2021/03/20 08:02:25;;;;;;;;;;;14.70;53.90;;;;;;4918636;29;19994;-66
2021/03/20 08:05:06;;;;;;;;;;;14.50;53.80;;;;;;4918657;29;19922;-64
2021/03/20 08:07:43;;;;;;;;;;;14.80;53.90;;;;;;4901235;29;19915;-65
2021/03/20 08:10:15;;;;;;;;;;;14.70;53.80;;;;;;4918290;29;19907;-66
2021/03/20 08:12:51;;;;;;;;;;;14.80;53.80;;;;;;4900677;29;19907;-65
2021/03/20 08:15:19;;;;;;;;;;;14.80;53.70;;;;;;4918233;29;19915;-65
2021/03/20 08:17:45;;;;;;;;;;;14.80;53.90;;;;;;4918104;29;20006;-65
2021/03/20 08:20:15;;;;;;;;;;;14.80;53.80;;;;;;4918493;29;19962;-64
2021/03/20 08:22:40;;;;;;;;;;;14.80;53.70;;;;;;4918032;29;19929;-65
2021/03/20 08:25:09;;;;;;;;;;;14.80;53.70;;;;;;4917934;29;20445;-65
2021/03/20 08:27:43;;;;;;;;;;;14.80;53.60;;;;;;4917979;29;19911;-63
2021/03/20 08:30:24;;;;;;;;;;;14.90;53.60;;;;;;4917996;29;19923;-62
2021/03/20 08:33:15;;;;;;;;;;;14.90;53.30;;;;;;4917944;29;19907;-63
2021/03/20 08:35:50;;;;;;;;;;;14.90;53.10;;;;;;4917997;29;20322;-63
2021/03/20 08:38:18;;;;;;;;;;;14.90;53.30;;;;;;4917971;29;19949;-61
2021/03/20 08:40:58;;;;;;;;;;;15.00;53.00;;;;;;4917711;29;20413;-63
2021/03/20 08:43:42;;;;;;;;;;;15.00;52.90;;;;;;4900703;29;19915;-63
2021/03/20 08:46:25;;;;;;;;;;;15.10;52.80;;;;;;4917456;29;19959;-63
2021/03/20 08:49:09;;;;;;;;;;;15.10;53.20;;;;;;4917806;29;19907;-62
2021/03/20 08:51:39;;;;;;;;;;;15.20;53.00;;;;;;4917521;29;19907;-62
2021/03/20 08:54:07;;;;;;;;;;;15.20;52.70;;;;;;4917319;29;19907;-61
2021/03/20 08:56:51;;;;;;;;;;;15.20;52.80;;;;;;4917313;29;19911;-64
2021/03/20 08:59:21;;;;;;;;;;;15.20;52.50;;;;;;4917295;29;19911;-64
2021/03/20 09:01:59;;;;;;;;;;;15.00;52.90;;;;;;4916876;29;20342;-64
2021/03/20 09:04:30;;;;;;;;;;;15.30;53.00;;;;;;4916641;29;19918;-63
2021/03/20 09:07:01;;;;;;;;;;;15.10;52.90;;;;;;4917458;29;20322;-63
2021/03/20 09:09:30;;;;;;;;;;;15.50;52.70;;;;;;4900180;29;19943;-62
2021/03/20 09:12:06;;;;;;;;;;;15.60;52.30;;;;;;4917160;29;19949;-61
2021/03/20 09:14:45;;;;;;;;;;;15.90;52.20;;;;;;4917044;29;20286;-61
2021/03/20 09:17:19;;;;;;;;;;;16.10;52.00;;;;;;4917118;29;19906;-62
2021/03/20 09:19:50;;;;;;;;;;;16.30;51.60;;;;;;4917234;29;20025;-62
2021/03/20 09:22:17;;;;;;;;;;;16.50;51.40;;;;;;4917061;29;19911;-62
2021/03/20 09:24:49;;;;;;;;;;;16.50;51.30;;;;;;4916095;29;20318;-63
2021/03/20 09:27:34;;;;;;;;;;;16.70;51.20;;;;;;4916891;29;19911;-63
2021/03/20 09:30:16;;;;;;;;;;;16.70;51.10;;;;;;4916811;29;20270;-62
2021/03/20 09:32:47;;;;;;;;;;;16.90;51.00;;;;;;4916920;29;20450;-61
2021/03/20 09:35:32;;;;;;;;;;;16.90;50.90;;;;;;4916664;29;20354;-63
2021/03/20 09:37:59;;;;;;;;;;;17.00;50.90;;;;;;4917149;29;20326;-63
2021/03/20 09:40:50;;;;;;;;;;;17.00;51.00;;;;;;4916656;29;20425;-62
2021/03/20 09:43:34;;;;;;;;;;;17.10;51.40;;;;;;4916718;29;19963;-62
2021/03/20 09:46:20;;;;;;;;;;;17.10;51.10;;;;;;4916406;29;20319;-61
2021/03/20 09:48:46;;;;;;;;;;;17.20;51.30;;;;;;4906143;29;19907;-62
2021/03/20 09:51:30;;;;;;;;;;;17.20;50.90;;;;;;4916552;29;19962;-61
2021/03/20 09:53:55;;;;;;;;;;;17.30;50.60;;;;;;4916719;29;19914;-62
2021/03/20 09:56:25;;;;;;;;;;;17.20;50.50;;;;;;4916712;29;19907;-62
2021/03/20 09:58:51;;;;;;;;;;;17.40;50.30;;;;;;4916321;29;19907;-61
2021/03/20 10:01:16;;;;;;;;;;;17.40;50.40;;;;;;4916510;29;19907;-61
2021/03/20 10:03:44;;;;;;;;;;;17.30;50.30;;;;;;4916528;29;19967;-62
2021/03/20 10:06:13;;;;;;;;;;;17.40;50.80;;;;;;4916417;29;19915;-62
2021/03/20 10:08:45;;;;;;;;;;;17.50;50.50;;;;;;4916464;29;19911;-62
2021/03/20 10:11:29;;;;;;;;;;;17.50;50.60;;;;;;4916226;29;19907;-62
2021/03/20 10:13:54;;;;;;;;;;;17.60;50.50;;;;;;4916253;29;19938;-62
2021/03/20 10:16:21;;;;;;;;;;;17.60;51.50;;;;;;4914947;29;20335;-62
2021/03/20 10:18:54;;;;;;;;;;;17.60;50.40;;;;;;4916212;29;19942;-62
2021/03/20 10:21:24;;;;;;;;;;;17.60;50.70;;;;;;4915949;29;19915;-62
2021/03/20 10:23:56;;;;;;;;;;;17.70;51.10;;;;;;4916206;29;19907;-61
2021/03/20 10:26:21;;;;;;;;;;;17.70;51.10;;;;;;4898974;29;20345;-62
2021/03/20 10:28:50;;;;;;;;;;;17.50;50.70;;;;;;4916384;29;19938;-62
2021/03/20 10:31:15;;;;;;;;;;;17.60;50.70;;;;;;4916030;29;20388;-62
2021/03/20 10:33:43;;;;;;;;;;;17.60;50.30;;;;;;4916263;29;19907;-61
2021/03/20 10:36:14;;;;;;;;;;;17.80;50.20;;;;;;4916845;29;19907;-60
2021/03/20 10:38:40;;;;;;;;;;;17.90;50.30;;;;;;4919832;29;19993;-61
2021/03/20 10:41:24;;;;;;;;;;;17.90;50.50;;;;;;4920083;29;19972;-61
2021/03/20 10:43:49;;;;;;;;;;;17.90;50.30;;;;;;4919900;29;19907;-61
2021/03/20 10:46:16;;;;;;;;;;;17.90;50.80;;;;;;4919670;29;19915;-61
2021/03/20 10:48:42;;;;;;;;;;;17.80;51.30;;;;;;4920041;29;19907;-61
2021/03/20 10:51:08;;;;;;;;;;;17.80;52.20;;;;;;4919760;29;20278;-61
2021/03/20 10:53:40;;;;;;;;;;;18.20;53.40;;;;;;4919930;29;19907;-62
2021/03/20 10:56:06;;;;;;;;;;;18.10;54.30;;;;;;4919523;29;19942;-61
2021/03/20 10:58:40;;;;;;;;;;;18.70;55.40;;;;;;4919544;29;20012;-61
2021/03/20 11:01:06;;;;;;;;;;;18.20;55.90;;;;;;4919471;29;19907;-60
2021/03/20 11:03:39;;;;;;;;;;;18.10;54.50;;;;;;4919716;29;20001;-61
2021/03/20 11:06:09;;;;;;;;;;;18.20;54.90;;;;;;4919243;29;20361;-61
2021/03/20 11:08:34;;;;;;;;;;;18.10;54.40;;;;;;4919407;29;19907;-61
2021/03/20 11:11:12;;;;;;;;;;;18.30;53.80;;;;;;4919313;29;19907;-62
2021/03/20 11:13:48;;;;;;;;;;;18.20;52.60;;;;;;4919229;29;19907;-62
2021/03/20 11:16:18;;;;;;;;;;;18.20;52.80;;;;;;4925590;29;19941;-61
2021/03/20 11:18:46;;;;;;;;;;;18.30;53.00;;;;;;4919512;29;20417;-60
2021/03/20 11:21:16;;;;;;;;;;;18.10;53.00;;;;;;4918978;29;20408;-61
2021/03/20 11:23:41;;;;;;;;;;;18.30;52.60;;;;;;4919052;29;19914;-60
2021/03/20 11:26:11;;;;;;;;;;;18.60;52.70;;;;;;4919029;29;19915;-61
2021/03/20 11:28:37;;;;;;;;;;;18.40;52.50;;;;;;4919234;29;19978;-61
2021/03/20 11:31:04;;;;;;;;;;;18.10;52.70;;;;;;4918980;29;20382;-61
2021/03/20 11:33:31;;;;;;;;;;;18.00;52.60;;;;;;4919214;29;19930;-61
2021/03/20 11:35:59;;;;;;;;;;;18.10;52.90;;;;;;4901996;29;19997;-61
2021/03/20 11:38:25;;;;;;;;;;;18.10;53.20;;;;;;4918978;29;19942;-61
2021/03/20 11:41:02;;;;;;;;;;;18.20;53.30;;;;;;4918881;29;20379;-61
2021/03/20 11:43:30;;;;;;;;;;;18.20;53.30;;;;;;4918905;29;19990;-62
2021/03/20 11:46:14;;;;;;;;;;;17.90;53.40;;;;;;4918713;29;19915;-61
2021/03/20 11:48:42;;;;;;;;;;;18.10;53.80;;;;;;4917794;29;19907;-61
2021/03/20 11:51:13;;;;;;;;;;;17.90;53.90;;;;;;4918664;29;19915;-61
2021/03/20 11:53:43;;;;;;;;;;;18.10;54.10;;;;;;4918701;29;19911;-60
2021/03/20 11:56:18;;;;;;;;;;;18.00;54.20;;;;;;4918712;29;19911;-61
2021/03/20 11:58:57;;;;;;;;;;;18.00;54.20;;;;;;4918580;29;19915;-61
2021/03/20 12:01:25;;;;;;;;;;;17.90;54.30;;;;;;4918786;29;19911;-61
2021/03/20 12:03:51;;;;;;;;;;;17.70;54.30;;;;;;4918405;29;20281;-60
2021/03/20 12:06:17;;;;;;;;;;;17.90;54.40;;;;;;4918225;29;19921;-61
2021/03/20 12:08:44;;;;;;;;;;;17.80;54.50;;;;;;4918215;29;20014;-60
2021/03/20 12:11:11;;;;;;;;;;;17.70;54.40;;;;;;4918344;29;19958;-60
2021/03/20 12:13:52;;;;;;;;;;;17.80;54.80;;;;;;4918605;29;19911;-61
2021/03/20 12:16:38;;;;;;;;;;;17.70;54.70;;;;;;4918262;29;20274;-60
2021/03/20 12:19:13;;;;;;;;;;;17.70;54.90;;;;;;4918644;29;19919;-61
2021/03/20 12:21:57;;;;;;;;;;;17.60;55.00;;;;;;4918501;29;19975;-60
2021/03/20 12:24:41;;;;;;;;;;;17.60;55.30;;;;;;4918191;29;19907;-61
2021/03/20 12:27:25;;;;;;;;;;;17.60;55.20;;;;;;4917971;29;19918;-60
2021/03/20 12:29:53;;;;;;;;;;;17.50;55.10;;;;;;4917992;29;19998;-60
2021/03/20 12:32:32;;;;;;;;;;;17.50;55.40;;;;;;4918258;29;19911;-60
2021/03/20 12:35:30;;;;;;;;;;;17.50;55.40;;;;;;4917958;29;20299;-60
2021/03/20 12:38:01;;;;;;;;;;;17.40;55.80;;;;;;4875841;29;20001;-60
2021/03/20 12:40:26;;;;;;;;;;;17.40;55.70;;;;;;4917749;29;19961;-62
2021/03/20 12:42:52;;;;;;;;;;;17.30;56.10;;;;;;4917889;29;19950;-61
2021/03/20 12:45:20;;;;;;;;;;;17.30;56.30;;;;;;4917489;29;20366;-61
2021/03/20 12:47:46;;;;;;;;;;;17.30;56.00;;;;;;4917812;29;19955;-62
2021/03/20 12:50:11;;;;;;;;;;;17.20;56.30;;;;;;4917417;29;19907;-62
2021/03/20 12:52:37;;;;;;;;;;;17.10;56.10;;;;;;4917561;29;19914;-61
2021/03/20 12:55:05;;;;;;;;;;;16.90;56.00;;;;;;4917424;29;19911;-59
2021/03/20 12:57:33;;;;;;;;;;;17.10;56.30;;;;;;4917532;29;19907;-61
2021/03/20 12:59:59;;;;;;;;;;;17.10;56.20;;;;;;4917207;29;20197;-60
2021/03/20 13:02:24;;;;;;;;;;;16.80;56.10;;;;;;4917353;29;20378;-61
2021/03/20 13:04:50;;;;;;;;;;;17.00;56.80;;;;;;4917371;29;19911;-61
2021/03/20 13:07:17;;;;;;;;;;;16.80;55.60;;;;;;4917374;29;19911;-60
2021/03/20 13:09:42;;;;;;;;;;;17.00;55.40;;;;;;4917434;29;19907;-61
2021/03/20 13:12:09;;;;;;;;;;;17.00;55.60;;;;;;4917000;29;19914;-60
2021/03/20 13:14:35;;;;;;;;;;;17.00;56.00;;;;;;4916933;29;19907;-61
2021/03/20 13:17:02;;;;;;;;;;;16.80;55.70;;;;;;4899970;29;20015;-61
2021/03/20 13:19:27;;;;;;;;;;;16.90;56.10;;;;;;4917454;29;19918;-61
2021/03/20 13:21:53;;;;;;;;;;;16.80;56.00;;;;;;4917143;29;19915;-61
2021/03/20 13:24:18;;;;;;;;;;;16.80;56.10;;;;;;4916962;29;20335;-65
2021/03/20 13:26:44;;;;;;;;;;;16.80;56.00;;;;;;4916845;29;19970;-61
2021/03/20 13:29:09;;;;;;;;;;;17.00;56.10;;;;;;4917038;29;19908;-61
2021/03/20 13:31:35;;;;;;;;;;;16.80;55.80;;;;;;4917197;29;19989;-63
2021/03/20 13:34:00;;;;;;;;;;;16.90;55.40;;;;;;4916900;29;19917;-61
2021/03/20 13:36:26;;;;;;;;;;;17.00;55.20;;;;;;4916934;29;19914;-61
2021/03/20 13:38:52;;;;;;;;;;;16.90;55.00;;;;;;4916884;29;19962;-61
2021/03/20 13:41:18;;;;;;;;;;;16.80;55.60;;;;;;4916870;29;20362;-61
2021/03/20 13:43:43;;;;;;;;;;;16.80;55.00;;;;;;4916861;29;19917;-61
2021/03/20 13:46:09;;;;;;;;;;;16.60;55.00;;;;;;4916873;29;19919;-61
2021/03/20 13:48:36;;;;;;;;;;;16.70;55.40;;;;;;4916806;29;19907;-61
2021/03/20 13:51:02;;;;;;;;;;;16.80;55.70;;;;;;4916898;29;19907;-61
2021/03/20 13:53:28;;;;;;;;;;;16.50;55.80;;;;;;4916456;29;19958;-61
2021/03/20 13:55:58;;;;;;;;;;;16.60;55.90;;;;;;4916735;29;19911;-61
2021/03/20 13:58:24;;;;;;;;;;;16.60;56.10;;;;;;4916696;29;19911;-62
2021/03/20 14:00:52;;;;;;;;;;;16.50;56.20;;;;;;4916415;29;19907;-61
2021/03/20 14:03:18;;;;;;;;;;;16.50;56.20;;;;;;4916567;29;20299;-61
2021/03/20 14:05:44;;;;;;;;;;;16.50;56.00;;;;;;4899210;29;19961;-60
2021/03/20 14:08:09;;;;;;;;;;;16.40;56.50;;;;;;4916329;29;19907;-61
2021/03/20 14:10:37;;;;;;;;;;;16.20;56.80;;;;;;4915664;29;19994;-60
2021/03/20 14:13:02;;;;;;;;;;;16.30;56.90;;;;;;4916272;29;20434;-61
2021/03/20 14:15:28;;;;;;;;;;;16.40;57.10;;;;;;4916289;29;19989;-61
2021/03/20 14:17:54;;;;;;;;;;;16.40;57.30;;;;;;4916386;29;19911;-61
2021/03/20 14:20:22;;;;;;;;;;;16.40;57.90;;;;;;4916309;29;20279;-60
2021/03/20 14:22:47;;;;;;;;;;;16.10;58.30;;;;;;4916424;29;20322;-61
2021/03/20 14:25:13;;;;;;;;;;;16.10;58.90;;;;;;4916104;29;19914;-61
2021/03/20 14:27:38;;;;;;;;;;;16.30;60.40;;;;;;4916073;29;19915;-60
2021/03/20 14:30:04;;;;;;;;;;;16.30;61.00;;;;;;4916097;29;19920;-61
2021/03/20 14:32:30;;;;;;;;;;;16.20;60.90;;;;;;4916006;29;19907;-61
2021/03/20 14:34:55;;;;;;;;;;;16.30;61.40;;;;;;4915900;29;19993;-60
2021/03/20 14:37:21;;;;;;;;;;;16.80;61.70;;;;;;4915999;29;19907;-60